Jbu Maas — 3EQY6 — position and weather

sailwx.info

Track history (hours):
 
Tides and Currents Weather Stations Pressure Air Temp Water Temp Dewpoint Dewpoint Depression Visibility Wind Speed Wind Dir Waves Ship Positions

Jbu Maas

Last reported at 2016-Jan-29 01:10 UTC. Time now 2016-Feb-09 11:53 UTC.
Position N 10°54' W 061°57'.
Warning: this ship's position is 11 days out of date.

Length 126 m; draft 7.3 m.

Type: Tanker. MMSI: 372492000.

Date/timePositionNaut miles runAvg speedWind from/ knotsBaromVisibWave heightAir tempDewpointWater temp
2016-Jan-29 01:10N 10°54' W 061°57'1016.3
2016-Jan-29 00:33N 10°47' W 061°50'1515.6
2016-Jan-28 23:33N 10°32' W 061°47'1515.4
2016-Jan-28 22:34N 10°23' W 061°34'5 4.6
2016-Jan-28 21:33N 10°23' W 061°29'0 0.0
2016-Jan-27 14:33N 10°23' W 061°29'6 5.6
2016-Jan-27 13:33N 10°23' W 061°35'1111.2
2016-Jan-27 12:33N 10°29' W 061°44'1212.4
2016-Jan-27 11:33N 10°41' W 061°48'  
Track history (hours):
 
Tides and Currents Weather Stations Pressure Air Temp Water Temp Dewpoint Dewpoint Depression Visibility Wind Speed Wind Dir Waves Ship Positions

Jbu Maas

Last reported at 2016-Jan-29 01:10 UTC. Time now 2016-Feb-09 11:53 UTC.
Position N 10°54' W 061°57'.
Warning: this ship's position is 11 days out of date.

Length 126 m; draft 7.3 m.

Type: Tanker. MMSI: 372492000.

Date/timePositionNaut miles runAvg speedWind from/ knotsBaromVisibWave heightAir tempDewpointWater temp
2016-Jan-29 01:10N 10°54' W 061°57'1016.3
2016-Jan-29 00:33N 10°47' W 061°50'1515.6
2016-Jan-28 23:33N 10°32' W 061°47'1515.4
2016-Jan-28 22:34N 10°23' W 061°34'5 4.6
2016-Jan-28 21:33N 10°23' W 061°29'0 0.0
2016-Jan-27 14:33N 10°23' W 061°29'6 5.6
2016-Jan-27 13:33N 10°23' W 061°35'1111.2
2016-Jan-27 12:33N 10°29' W 061°44'1212.4
2016-Jan-27 11:33N 10°41' W 061°48'  

Dump ship's entire track history